Terminal Aerodrome Forecast
Issued by NWS Wakefield, VA

Home | Current Version | Previous Version | Text Only | Print | Product List | Glossary On
Versions: 1 2 3 4 5 6 7 8 9 10 11 12 13
000
FTUS41 KAKQ 192141 AAA
TAFSBY
TAF AMD
KSBY 192141Z 1922/2018 30009KT P6SM SKC
     FM200000 34003KT P6SM SKC
     FM200600 35004KT P6SM SKC
     FM201300 03003KT P6SM FEW250=

USA.gov is the U.S. government's official web portal to all federal, state and local government web resources and services.